sensor_id;sensor_type;location;lat;lon;timestamp;P1;durP1;ratioP1;P2;durP2;ratioP2
81950;SDS011;71452;52.562;5.642;2023-11-21T00:00:13;9.88;;;3.85;;
81950;SDS011;71452;52.562;5.642;2023-11-21T00:02:45;12.80;;;4.90;;
81950;SDS011;71452;52.562;5.642;2023-11-21T00:05:15;17.38;;;4.70;;
81950;SDS011;71452;52.562;5.642;2023-11-21T00:07:44;10.05;;;3.92;;
81950;SDS011;71452;52.562;5.642;2023-11-21T00:10:13;15.35;;;4.10;;
81950;SDS011;71452;52.562;5.642;2023-11-21T00:12:42;8.90;;;3.80;;
81950;SDS011;71452;52.562;5.642;2023-11-21T00:15:13;7.68;;;3.38;;
81950;SDS011;71452;52.562;5.642;2023-11-21T00:17:42;11.25;;;3.67;;
81950;SDS011;71452;52.562;5.642;2023-11-21T00:20:14;9.45;;;3.92;;
81950;SDS011;71452;52.562;5.642;2023-11-21T00:22:43;11.82;;;4.30;;
81950;SDS011;71452;52.562;5.642;2023-11-21T00:25:13;9.48;;;3.97;;
81950;SDS011;71452;52.562;5.642;2023-11-21T00:27:43;7.97;;;3.28;;
81950;SDS011;71452;52.562;5.642;2023-11-21T00:30:12;8.43;;;3.30;;
81950;SDS011;71452;52.562;5.642;2023-11-21T00:32:42;11.27;;;3.95;;
81950;SDS011;71452;52.562;5.642;2023-11-21T00:35:14;11.75;;;4.22;;
81950;SDS011;71452;52.562;5.642;2023-11-21T00:37:43;9.75;;;4.22;;
81950;SDS011;71452;52.562;5.642;2023-11-21T00:40:15;16.10;;;5.47;;
81950;SDS011;71452;52.562;5.642;2023-11-21T00:42:45;11.05;;;3.67;;
81950;SDS011;71452;52.562;5.642;2023-11-21T00:45:14;13.10;;;3.88;;
81950;SDS011;71452;52.562;5.642;2023-11-21T00:47:45;9.88;;;3.50;;
81950;SDS011;71452;52.562;5.642;2023-11-21T00:50:14;16.38;;;4.65;;
81950;SDS011;71452;52.562;5.642;2023-11-21T00:52:44;11.50;;;4.57;;
81950;SDS011;71452;52.562;5.642;2023-11-21T00:55:13;7.72;;;3.90;;
81950;SDS011;71452;52.562;5.642;2023-11-21T00:57:42;9.65;;;4.05;;
81950;SDS011;71452;52.562;5.642;2023-11-21T01:00:12;8.80;;;4.82;;
81950;SDS011;71452;52.562;5.642;2023-11-21T01:02:42;10.32;;;3.83;;
81950;SDS011;71452;52.562;5.642;2023-11-21T01:05:14;11.00;;;4.25;;
81950;SDS011;71452;52.562;5.642;2023-11-21T01:07:43;11.43;;;4.13;;
81950;SDS011;71452;52.562;5.642;2023-11-21T01:10:12;10.00;;;3.90;;
81950;SDS011;71452;52.562;5.642;2023-11-21T01:12:43;7.85;;;4.05;;
81950;SDS011;71452;52.562;5.642;2023-11-21T01:15:12;8.75;;;4.15;;
81950;SDS011;71452;52.562;5.642;2023-11-21T01:17:41;8.93;;;3.45;;
81950;SDS011;71452;52.562;5.642;2023-11-21T01:20:12;12.60;;;4.28;;
81950;SDS011;71452;52.562;5.642;2023-11-21T01:22:43;9.27;;;3.75;;
81950;SDS011;71452;52.562;5.642;2023-11-21T01:25:14;9.20;;;3.67;;
81950;SDS011;71452;52.562;5.642;2023-11-21T01:27:43;12.40;;;4.50;;
81950;SDS011;71452;52.562;5.642;2023-11-21T01:30:13;9.60;;;3.55;;
81950;SDS011;71452;52.562;5.642;2023-11-21T01:32:42;12.43;;;3.60;;
81950;SDS011;71452;52.562;5.642;2023-11-21T01:35:14;9.32;;;4.15;;
81950;SDS011;71452;52.562;5.642;2023-11-21T01:37:43;14.77;;;3.97;;
81950;SDS011;71452;52.562;5.642;2023-11-21T01:40:13;8.13;;;3.92;;
81950;SDS011;71452;52.562;5.642;2023-11-21T01:42:43;13.30;;;4.25;;
81950;SDS011;71452;52.562;5.642;2023-11-21T01:45:13;13.35;;;3.97;;
81950;SDS011;71452;52.562;5.642;2023-11-21T01:47:42;12.30;;;4.22;;
81950;SDS011;71452;52.562;5.642;2023-11-21T01:50:16;8.75;;;3.42;;
81950;SDS011;71452;52.562;5.642;2023-11-21T01:52:48;11.50;;;4.20;;
81950;SDS011;71452;52.562;5.642;2023-11-21T01:55:17;10.65;;;3.85;;
81950;SDS011;71452;52.562;5.642;2023-11-21T01:57:47;7.68;;;3.25;;
81950;SDS011;71452;52.562;5.642;2023-11-21T02:00:17;11.15;;;3.67;;
81950;SDS011;71452;52.562;5.642;2023-11-21T02:02:46;8.93;;;3.63;;
81950;SDS011;71452;52.562;5.642;2023-11-21T02:05:19;9.70;;;4.25;;
81950;SDS011;71452;52.562;5.642;2023-11-21T02:07:48;15.57;;;4.20;;
81950;SDS011;71452;52.562;5.642;2023-11-21T02:10:18;5.82;;;2.85;;
81950;SDS011;71452;52.562;5.642;2023-11-21T02:12:48;7.95;;;3.42;;
81950;SDS011;71452;52.562;5.642;2023-11-21T02:15:19;11.85;;;3.40;;
81950;SDS011;71452;52.562;5.642;2023-11-21T02:17:52;10.43;;;3.78;;
81950;SDS011;71452;52.562;5.642;2023-11-21T02:20:24;13.07;;;4.55;;
81950;SDS011;71452;52.562;5.642;2023-11-21T02:23:00;11.27;;;4.80;;
81950;SDS011;71452;52.562;5.642;2023-11-21T02:28:01;7.40;;;3.75;;
81950;SDS011;71452;52.562;5.642;2023-11-21T02:30:32;8.10;;;4.03;;
81950;SDS011;71452;52.562;5.642;2023-11-21T02:33:02;8.90;;;2.67;;
81950;SDS011;71452;52.562;5.642;2023-11-21T02:35:31;7.45;;;3.75;;
81950;SDS011;71452;52.562;5.642;2023-11-21T02:38:03;5.43;;;3.05;;
81950;SDS011;71452;52.562;5.642;2023-11-21T02:40:32;14.35;;;3.20;;
81950;SDS011;71452;52.562;5.642;2023-11-21T02:43:01;6.60;;;3.10;;
81950;SDS011;71452;52.562;5.642;2023-11-21T02:45:31;5.30;;;3.10;;
81950;SDS011;71452;52.562;5.642;2023-11-21T02:48:00;7.65;;;2.45;;
81950;SDS011;71452;52.562;5.642;2023-11-21T02:50:30;8.32;;;3.47;;
81950;SDS011;71452;52.562;5.642;2023-11-21T02:53:03;8.90;;;2.67;;
81950;SDS011;71452;52.562;5.642;2023-11-21T02:55:33;9.98;;;3.60;;
81950;SDS011;71452;52.562;5.642;2023-11-21T02:58:02;14.43;;;2.97;;
81950;SDS011;71452;52.562;5.642;2023-11-21T03:00:32;9.13;;;3.10;;
81950;SDS011;71452;52.562;5.642;2023-11-21T03:03:01;6.63;;;2.22;;
81950;SDS011;71452;52.562;5.642;2023-11-21T03:05:30;6.57;;;2.25;;
81950;SDS011;71452;52.562;5.642;2023-11-21T03:08:03;8.00;;;2.38;;
81950;SDS011;71452;52.562;5.642;2023-11-21T03:10:32;11.65;;;2.60;;
81950;SDS011;71452;52.562;5.642;2023-11-21T03:13:01;6.43;;;2.25;;
81950;SDS011;71452;52.562;5.642;2023-11-21T03:15:31;4.75;;;1.67;;
81950;SDS011;71452;52.562;5.642;2023-11-21T03:18:01;9.98;;;2.10;;
81950;SDS011;71452;52.562;5.642;2023-11-21T03:20:30;8.02;;;2.55;;
81950;SDS011;71452;52.562;5.642;2023-11-21T03:23:00;9.48;;;2.65;;
81950;SDS011;71452;52.562;5.642;2023-11-21T03:25:33;6.78;;;2.72;;
81950;SDS011;71452;52.562;5.642;2023-11-21T03:28:02;5.10;;;1.80;;
81950;SDS011;71452;52.562;5.642;2023-11-21T03:30:31;9.95;;;2.13;;
81950;SDS011;71452;52.562;5.642;2023-11-21T03:33:00;6.28;;;2.45;;
81950;SDS011;71452;52.562;5.642;2023-11-21T03:35:29;12.15;;;2.88;;
81950;SDS011;71452;52.562;5.642;2023-11-21T03:37:58;4.75;;;2.47;;
81950;SDS011;71452;52.562;5.642;2023-11-21T03:40:29;5.30;;;2.13;;
81950;SDS011;71452;52.562;5.642;2023-11-21T03:43:01;7.55;;;2.70;;
81950;SDS011;71452;52.562;5.642;2023-11-21T03:45:30;8.95;;;3.17;;
81950;SDS011;71452;52.562;5.642;2023-11-21T03:47:59;7.43;;;2.67;;
81950;SDS011;71452;52.562;5.642;2023-11-21T03:50:29;10.32;;;2.63;;
81950;SDS011;71452;52.562;5.642;2023-11-21T03:52:58;8.77;;;3.30;;
81950;SDS011;71452;52.562;5.642;2023-11-21T03:55:29;12.93;;;2.92;;
81950;SDS011;71452;52.562;5.642;2023-11-21T03:58:01;5.85;;;2.40;;
81950;SDS011;71452;52.562;5.642;2023-11-21T04:00:30;7.78;;;2.42;;
81950;SDS011;71452;52.562;5.642;2023-11-21T04:02:59;6.28;;;2.83;;
81950;SDS011;71452;52.562;5.642;2023-11-21T04:05:28;8.13;;;2.75;;
81950;SDS011;71452;52.562;5.642;2023-11-21T04:07:57;10.60;;;2.72;;
81950;SDS011;71452;52.562;5.642;2023-11-21T04:10:26;8.63;;;4.00;;
81950;SDS011;71452;52.562;5.642;2023-11-21T04:12:55;5.57;;;2.63;;
81950;SDS011;71452;52.562;5.642;2023-11-21T04:15:28;6.05;;;2.20;;
81950;SDS011;71452;52.562;5.642;2023-11-21T04:17:57;5.50;;;2.13;;
81950;SDS011;71452;52.562;5.642;2023-11-21T04:20:26;7.35;;;2.63;;
81950;SDS011;71452;52.562;5.642;2023-11-21T04:22:55;12.90;;;2.38;;
81950;SDS011;71452;52.562;5.642;2023-11-21T04:25:24;5.15;;;2.20;;
81950;SDS011;71452;52.562;5.642;2023-11-21T04:27:53;6.22;;;2.17;;
81950;SDS011;71452;52.562;5.642;2023-11-21T04:30:22;5.63;;;2.03;;
81950;SDS011;71452;52.562;5.642;2023-11-21T04:32:54;5.35;;;1.88;;
81950;SDS011;71452;52.562;5.642;2023-11-21T04:35:23;6.28;;;1.83;;
81950;SDS011;71452;52.562;5.642;2023-11-21T04:37:52;3.50;;;1.40;;
81950;SDS011;71452;52.562;5.642;2023-11-21T04:40:22;3.33;;;1.20;;
81950;SDS011;71452;52.562;5.642;2023-11-21T04:42:52;2.55;;;1.23;;
81950;SDS011;71452;52.562;5.642;2023-11-21T04:45:22;4.53;;;1.63;;
81950;SDS011;71452;52.562;5.642;2023-11-21T04:47:54;8.23;;;1.45;;
81950;SDS011;71452;52.562;5.642;2023-11-21T04:50:23;2.53;;;0.68;;
81950;SDS011;71452;52.562;5.642;2023-11-21T04:52:54;2.70;;;1.30;;
81950;SDS011;71452;52.562;5.642;2023-11-21T04:55:23;2.65;;;0.73;;
81950;SDS011;71452;52.562;5.642;2023-11-21T04:57:53;4.72;;;1.02;;
81950;SDS011;71452;52.562;5.642;2023-11-21T05:00:22;3.80;;;1.05;;
81950;SDS011;71452;52.562;5.642;2023-11-21T05:02:54;5.63;;;1.02;;
81950;SDS011;71452;52.562;5.642;2023-11-21T05:05:23;8.40;;;1.25;;
81950;SDS011;71452;52.562;5.642;2023-11-21T05:07:52;3.95;;;1.27;;
81950;SDS011;71452;52.562;5.642;2023-11-21T05:10:21;3.95;;;1.02;;
81950;SDS011;71452;52.562;5.642;2023-11-21T05:12:50;3.88;;;1.02;;
81950;SDS011;71452;52.562;5.642;2023-11-21T05:15:19;2.20;;;0.80;;
81950;SDS011;71452;52.562;5.642;2023-11-21T05:17:49;2.72;;;1.02;;
81950;SDS011;71452;52.562;5.642;2023-11-21T05:20:21;3.28;;;1.08;;
81950;SDS011;71452;52.562;5.642;2023-11-21T05:22:51;3.20;;;1.13;;
81950;SDS011;71452;52.562;5.642;2023-11-21T05:25:20;4.10;;;1.35;;
81950;SDS011;71452;52.562;5.642;2023-11-21T05:27:49;1.50;;;0.73;;
81950;SDS011;71452;52.562;5.642;2023-11-21T05:30:18;3.15;;;1.15;;
81950;SDS011;71452;52.562;5.642;2023-11-21T05:32:47;7.03;;;0.63;;
81950;SDS011;71452;52.562;5.642;2023-11-21T05:35:16;2.65;;;1.10;;
81950;SDS011;71452;52.562;5.642;2023-11-21T05:37:49;7.13;;;1.30;;
81950;SDS011;71452;52.562;5.642;2023-11-21T05:40:18;4.63;;;1.23;;
81950;SDS011;71452;52.562;5.642;2023-11-21T05:42:47;6.93;;;1.95;;
81950;SDS011;71452;52.562;5.642;2023-11-21T05:45:17;5.07;;;0.98;;
81950;SDS011;71452;52.562;5.642;2023-11-21T05:47:46;4.53;;;0.98;;
81950;SDS011;71452;52.562;5.642;2023-11-21T05:50:16;2.72;;;1.30;;
81950;SDS011;71452;52.562;5.642;2023-11-21T05:52:45;6.60;;;1.55;;
81950;SDS011;71452;52.562;5.642;2023-11-21T05:55:17;2.63;;;1.17;;
81950;SDS011;71452;52.562;5.642;2023-11-21T05:57:50;4.60;;;1.15;;
81950;SDS011;71452;52.562;5.642;2023-11-21T06:00:19;2.15;;;0.88;;
81950;SDS011;71452;52.562;5.642;2023-11-21T06:02:51;6.13;;;1.63;;
81950;SDS011;71452;52.562;5.642;2023-11-21T06:05:22;3.83;;;1.33;;
81950;SDS011;71452;52.562;5.642;2023-11-21T06:07:55;3.72;;;1.30;;
81950;SDS011;71452;52.562;5.642;2023-11-21T06:10:24;2.88;;;1.17;;
81950;SDS011;71452;52.562;5.642;2023-11-21T06:12:54;4.63;;;1.45;;
81950;SDS011;71452;52.562;5.642;2023-11-21T06:15:23;2.17;;;1.33;;
81950;SDS011;71452;52.562;5.642;2023-11-21T06:17:52;4.22;;;1.02;;
81950;SDS011;71452;52.562;5.642;2023-11-21T06:20:21;3.42;;;1.30;;
81950;SDS011;71452;52.562;5.642;2023-11-21T06:22:50;4.30;;;1.42;;
81950;SDS011;71452;52.562;5.642;2023-11-21T06:25:23;2.67;;;1.30;;
81950;SDS011;71452;52.562;5.642;2023-11-21T06:27:52;4.25;;;1.58;;
81950;SDS011;71452;52.562;5.642;2023-11-21T06:30:22;5.90;;;2.05;;
81950;SDS011;71452;52.562;5.642;2023-11-21T06:32:51;3.72;;;1.85;;
81950;SDS011;71452;52.562;5.642;2023-11-21T06:35:20;3.63;;;1.83;;
81950;SDS011;71452;52.562;5.642;2023-11-21T06:37:49;7.97;;;2.35;;
81950;SDS011;71452;52.562;5.642;2023-11-21T06:40:19;7.85;;;1.80;;
81950;SDS011;71452;52.562;5.642;2023-11-21T06:42:50;7.38;;;2.22;;
81950;SDS011;71452;52.562;5.642;2023-11-21T06:45:19;5.10;;;2.13;;
81950;SDS011;71452;52.562;5.642;2023-11-21T06:47:48;5.45;;;1.80;;
81950;SDS011;71452;52.562;5.642;2023-11-21T06:50:17;8.98;;;1.85;;
81950;SDS011;71452;52.562;5.642;2023-11-21T06:52:46;5.32;;;1.73;;
81950;SDS011;71452;52.562;5.642;2023-11-21T06:55:15;3.10;;;1.67;;
81950;SDS011;71452;52.562;5.642;2023-11-21T06:57:45;7.63;;;2.70;;
81950;SDS011;71452;52.562;5.642;2023-11-21T07:00:17;4.72;;;2.00;;
81950;SDS011;71452;52.562;5.642;2023-11-21T07:02:47;7.90;;;3.05;;
81950;SDS011;71452;52.562;5.642;2023-11-21T07:05:16;6.68;;;1.67;;
81950;SDS011;71452;52.562;5.642;2023-11-21T07:07:47;4.28;;;2.17;;
81950;SDS011;71452;52.562;5.642;2023-11-21T07:10:16;9.00;;;3.28;;
81950;SDS011;71452;52.562;5.642;2023-11-21T07:12:45;4.93;;;3.00;;
81950;SDS011;71452;52.562;5.642;2023-11-21T07:15:14;6.70;;;2.65;;
81950;SDS011;71452;52.562;5.642;2023-11-21T07:17:46;8.77;;;2.50;;
81950;SDS011;71452;52.562;5.642;2023-11-21T07:20:15;5.47;;;2.22;;
81950;SDS011;71452;52.562;5.642;2023-11-21T07:22:45;6.10;;;2.88;;
81950;SDS011;71452;52.562;5.642;2023-11-21T07:25:14;7.25;;;2.35;;
81950;SDS011;71452;52.562;5.642;2023-11-21T07:27:43;7.07;;;2.67;;
81950;SDS011;71452;52.562;5.642;2023-11-21T07:30:12;5.53;;;2.28;;
81950;SDS011;71452;52.562;5.642;2023-11-21T07:32:45;6.97;;;2.75;;
81950;SDS011;71452;52.562;5.642;2023-11-21T07:35:14;4.10;;;2.10;;
81950;SDS011;71452;52.562;5.642;2023-11-21T07:37:43;2.45;;;1.15;;
81950;SDS011;71452;52.562;5.642;2023-11-21T07:40:14;6.25;;;2.20;;
81950;SDS011;71452;52.562;5.642;2023-11-21T07:42:43;5.30;;;2.17;;
81950;SDS011;71452;52.562;5.642;2023-11-21T07:45:12;6.40;;;2.42;;
81950;SDS011;71452;52.562;5.642;2023-11-21T07:47:42;4.85;;;2.22;;
81950;SDS011;71452;52.562;5.642;2023-11-21T07:50:14;4.57;;;2.13;;
81950;SDS011;71452;52.562;5.642;2023-11-21T07:52:43;3.35;;;1.65;;
81950;SDS011;71452;52.562;5.642;2023-11-21T07:55:12;3.42;;;1.42;;
81950;SDS011;71452;52.562;5.642;2023-11-21T07:57:41;5.15;;;2.25;;
81950;SDS011;71452;52.562;5.642;2023-11-21T08:00:11;5.35;;;2.38;;
81950;SDS011;71452;52.562;5.642;2023-11-21T08:02:41;3.58;;;1.55;;
81950;SDS011;71452;52.562;5.642;2023-11-21T08:05:14;4.95;;;1.90;;
81950;SDS011;71452;52.562;5.642;2023-11-21T08:07:43;2.78;;;0.98;;
81950;SDS011;71452;52.562;5.642;2023-11-21T08:10:12;4.82;;;2.08;;
81950;SDS011;71452;52.562;5.642;2023-11-21T08:12:43;4.63;;;1.98;;
81950;SDS011;71452;52.562;5.642;2023-11-21T08:15:13;6.07;;;2.50;;
81950;SDS011;71452;52.562;5.642;2023-11-21T08:17:43;5.57;;;2.50;;
81950;SDS011;71452;52.562;5.642;2023-11-21T08:20:14;3.10;;;1.00;;
81950;SDS011;71452;52.562;5.642;2023-11-21T08:22:44;11.27;;;2.63;;
81950;SDS011;71452;52.562;5.642;2023-11-21T08:25:13;4.35;;;1.92;;
81950;SDS011;71452;52.562;5.642;2023-11-21T08:27:45;5.03;;;1.70;;
81950;SDS011;71452;52.562;5.642;2023-11-21T08:30:14;7.53;;;2.38;;
81950;SDS011;71452;52.562;5.642;2023-11-21T08:32:44;4.43;;;1.67;;
81950;SDS011;71452;52.562;5.642;2023-11-21T08:35:16;3.25;;;1.58;;
81950;SDS011;71452;52.562;5.642;2023-11-21T08:37:45;5.05;;;1.95;;
81950;SDS011;71452;52.562;5.642;2023-11-21T08:40:14;6.75;;;2.83;;
81950;SDS011;71452;52.562;5.642;2023-11-21T08:42:44;4.13;;;2.17;;
81950;SDS011;71452;52.562;5.642;2023-11-21T08:45:13;4.82;;;2.33;;
81950;SDS011;71452;52.562;5.642;2023-11-21T08:47:43;7.60;;;2.35;;
81950;SDS011;71452;52.562;5.642;2023-11-21T08:50:12;8.55;;;2.97;;
81950;SDS011;71452;52.562;5.642;2023-11-21T08:52:44;4.30;;;2.10;;
81950;SDS011;71452;52.562;5.642;2023-11-21T08:55:14;6.10;;;2.28;;
81950;SDS011;71452;52.562;5.642;2023-11-21T08:57:45;4.78;;;1.48;;
81950;SDS011;71452;52.562;5.642;2023-11-21T09:00:15;4.57;;;1.92;;
81950;SDS011;71452;52.562;5.642;2023-11-21T09:02:45;5.70;;;2.42;;
81950;SDS011;71452;52.562;5.642;2023-11-21T09:05:14;3.75;;;1.90;;
81950;SDS011;71452;52.562;5.642;2023-11-21T09:07:47;4.40;;;2.08;;
81950;SDS011;71452;52.562;5.642;2023-11-21T09:10:16;8.00;;;3.75;;
81950;SDS011;71452;52.562;5.642;2023-11-21T09:12:46;5.32;;;2.85;;
81950;SDS011;71452;52.562;5.642;2023-11-21T09:15:15;4.53;;;2.25;;
81950;SDS011;71452;52.562;5.642;2023-11-21T09:17:46;5.28;;;2.85;;
81950;SDS011;71452;52.562;5.642;2023-11-21T09:20:15;6.75;;;2.92;;
81950;SDS011;71452;52.562;5.642;2023-11-21T09:22:49;4.50;;;2.03;;
81950;SDS011;71452;52.562;5.642;2023-11-21T09:25:18;5.30;;;2.85;;
81950;SDS011;71452;52.562;5.642;2023-11-21T09:27:47;10.55;;;3.72;;
81950;SDS011;71452;52.562;5.642;2023-11-21T09:30:16;11.48;;;5.00;;
81950;SDS011;71452;52.562;5.642;2023-11-21T09:32:45;10.27;;;4.10;;
81950;SDS011;71452;52.562;5.642;2023-11-21T09:35:15;11.55;;;4.85;;
81950;SDS011;71452;52.562;5.642;2023-11-21T09:37:44;14.43;;;5.18;;
81950;SDS011;71452;52.562;5.642;2023-11-21T09:40:16;14.70;;;4.90;;
81950;SDS011;71452;52.562;5.642;2023-11-21T09:42:52;10.65;;;4.20;;
81950;SDS011;71452;52.562;5.642;2023-11-21T09:45:27;7.28;;;3.25;;
81950;SDS011;71452;52.562;5.642;2023-11-21T09:47:59;10.80;;;4.07;;
81950;SDS011;71452;52.562;5.642;2023-11-21T09:50:31;9.85;;;3.38;;
81950;SDS011;71452;52.562;5.642;2023-11-21T09:53:04;9.18;;;3.47;;
81950;SDS011;71452;52.562;5.642;2023-11-21T09:55:44;6.50;;;3.42;;
81950;SDS011;71452;52.562;5.642;2023-11-21T09:58:15;10.02;;;3.60;;
81950;SDS011;71452;52.562;5.642;2023-11-21T10:00:46;8.05;;;3.42;;
81950;SDS011;71452;52.562;5.642;2023-11-21T10:03:15;10.02;;;3.33;;
81950;SDS011;71452;52.562;5.642;2023-11-21T10:05:45;6.53;;;3.00;;
81950;SDS011;71452;52.562;5.642;2023-11-21T10:08:16;5.00;;;2.08;;
81950;SDS011;71452;52.562;5.642;2023-11-21T10:10:51;10.38;;;3.83;;
81950;SDS011;71452;52.562;5.642;2023-11-21T10:13:22;9.98;;;2.97;;
81950;SDS011;71452;52.562;5.642;2023-11-21T10:15:52;7.82;;;3.53;;
81950;SDS011;71452;52.562;5.642;2023-11-21T10:18:21;8.90;;;3.20;;
81950;SDS011;71452;52.562;5.642;2023-11-21T10:20:52;7.72;;;3.35;;
81950;SDS011;71452;52.562;5.642;2023-11-21T10:23:22;7.53;;;3.25;;
81950;SDS011;71452;52.562;5.642;2023-11-21T10:25:54;9.52;;;4.07;;
81950;SDS011;71452;52.562;5.642;2023-11-21T10:28:24;7.57;;;2.70;;
81950;SDS011;71452;52.562;5.642;2023-11-21T10:30:53;8.60;;;2.83;;
81950;SDS011;71452;52.562;5.642;2023-11-21T10:33:27;11.80;;;4.13;;
81950;SDS011;71452;52.562;5.642;2023-11-21T10:35:57;8.27;;;3.88;;
81950;SDS011;71452;52.562;5.642;2023-11-21T10:38:27;6.78;;;3.35;;
81950;SDS011;71452;52.562;5.642;2023-11-21T10:40:58;9.80;;;4.10;;
81950;SDS011;71452;52.562;5.642;2023-11-21T10:43:30;7.90;;;2.80;;
81950;SDS011;71452;52.562;5.642;2023-11-21T10:45:59;6.80;;;3.13;;
81950;SDS011;71452;52.562;5.642;2023-11-21T10:48:28;4.20;;;1.83;;
81950;SDS011;71452;52.562;5.642;2023-11-21T10:50:57;5.32;;;2.45;;
81950;SDS011;71452;52.562;5.642;2023-11-21T10:53:28;5.20;;;2.47;;
81950;SDS011;71452;52.562;5.642;2023-11-21T10:56:04;5.85;;;2.47;;
81950;SDS011;71452;52.562;5.642;2023-11-21T10:58:37;6.15;;;2.38;;
81950;SDS011;71452;52.562;5.642;2023-11-21T11:01:07;4.20;;;1.95;;
81950;SDS011;71452;52.562;5.642;2023-11-21T11:03:37;5.13;;;2.33;;
81950;SDS011;71452;52.562;5.642;2023-11-21T11:06:07;4.90;;;3.00;;
81950;SDS011;71452;52.562;5.642;2023-11-21T11:08:37;4.65;;;1.23;;
81950;SDS011;71452;52.562;5.642;2023-11-21T11:11:10;6.07;;;2.22;;
81950;SDS011;71452;52.562;5.642;2023-11-21T11:13:42;4.28;;;1.63;;
81950;SDS011;71452;52.562;5.642;2023-11-21T11:16:13;6.70;;;2.78;;
81950;SDS011;71452;52.562;5.642;2023-11-21T11:18:45;7.45;;;2.30;;
81950;SDS011;71452;52.562;5.642;2023-11-21T11:21:19;5.97;;;2.28;;
81950;SDS011;71452;52.562;5.642;2023-11-21T11:24:10;4.95;;;1.83;;
81950;SDS011;71452;52.562;5.642;2023-11-21T11:26:51;6.03;;;2.28;;
81950;SDS011;71452;52.562;5.642;2023-11-21T11:29:28;4.63;;;1.73;;
81950;SDS011;71452;52.562;5.642;2023-11-21T11:32:05;2.08;;;1.35;;
81950;SDS011;71452;52.562;5.642;2023-11-21T11:34:44;6.20;;;2.20;;
81950;SDS011;71452;52.562;5.642;2023-11-21T11:37:18;6.72;;;2.55;;
81950;SDS011;71452;52.562;5.642;2023-11-21T11:39:48;6.28;;;2.58;;
81950;SDS011;71452;52.562;5.642;2023-11-21T11:42:22;6.63;;;2.75;;
81950;SDS011;71452;52.562;5.642;2023-11-21T11:44:52;9.20;;;3.13;;
81950;SDS011;71452;52.562;5.642;2023-11-21T11:47:23;6.45;;;3.40;;
81950;SDS011;71452;52.562;5.642;2023-11-21T11:49:59;7.72;;;3.10;;
81950;SDS011;71452;52.562;5.642;2023-11-21T11:52:37;9.30;;;2.80;;
81950;SDS011;71452;52.562;5.642;2023-11-21T11:55:08;5.55;;;2.80;;
81950;SDS011;71452;52.562;5.642;2023-11-21T11:57:42;8.60;;;3.83;;
81950;SDS011;71452;52.562;5.642;2023-11-21T12:00:16;8.27;;;2.83;;
81950;SDS011;71452;52.562;5.642;2023-11-21T12:02:48;9.43;;;4.78;;
81950;SDS011;71452;52.562;5.642;2023-11-21T12:05:19;7.88;;;3.50;;
81950;SDS011;71452;52.562;5.642;2023-11-21T12:07:53;7.50;;;3.20;;
81950;SDS011;71452;52.562;5.642;2023-11-21T12:10:24;7.63;;;3.42;;
81950;SDS011;71452;52.562;5.642;2023-11-21T12:12:57;7.75;;;3.30;;
81950;SDS011;71452;52.562;5.642;2023-11-21T12:15:27;5.55;;;2.22;;
81950;SDS011;71452;52.562;5.642;2023-11-21T12:17:57;5.90;;;3.05;;
81950;SDS011;71452;52.562;5.642;2023-11-21T12:20:26;9.10;;;4.32;;
81950;SDS011;71452;52.562;5.642;2023-11-21T12:22:56;6.82;;;3.78;;
81950;SDS011;71452;52.562;5.642;2023-11-21T12:25:28;7.55;;;3.97;;
81950;SDS011;71452;52.562;5.642;2023-11-21T12:28:01;6.75;;;3.70;;
81950;SDS011;71452;52.562;5.642;2023-11-21T12:30:31;8.93;;;4.50;;
81950;SDS011;71452;52.562;5.642;2023-11-21T12:33:03;8.93;;;3.33;;
81950;SDS011;71452;52.562;5.642;2023-11-21T12:35:34;10.90;;;5.25;;
81950;SDS011;71452;52.562;5.642;2023-11-21T12:38:04;7.28;;;4.07;;
81950;SDS011;71452;52.562;5.642;2023-11-21T12:40:34;8.57;;;3.83;;
81950;SDS011;71452;52.562;5.642;2023-11-21T12:43:06;4.75;;;2.63;;
81950;SDS011;71452;52.562;5.642;2023-11-21T12:45:35;8.60;;;4.68;;
81950;SDS011;71452;52.562;5.642;2023-11-21T12:48:05;10.60;;;5.13;;
81950;SDS011;71452;52.562;5.642;2023-11-21T12:50:37;6.70;;;3.42;;
81950;SDS011;71452;52.562;5.642;2023-11-21T12:53:07;11.68;;;4.70;;
81950;SDS011;71452;52.562;5.642;2023-11-21T12:55:43;11.35;;;4.25;;
81950;SDS011;71452;52.562;5.642;2023-11-21T13:00:48;7.00;;;3.08;;
81950;SDS011;71452;52.562;5.642;2023-11-21T13:03:19;10.07;;;5.45;;
81950;SDS011;71452;52.562;5.642;2023-11-21T13:05:51;10.60;;;5.35;;
81950;SDS011;71452;52.562;5.642;2023-11-21T13:08:23;11.50;;;4.82;;
81950;SDS011;71452;52.562;5.642;2023-11-21T13:10:55;6.28;;;3.50;;
81950;SDS011;71452;52.562;5.642;2023-11-21T13:13:28;8.65;;;3.03;;
81950;SDS011;71452;52.562;5.642;2023-11-21T13:15:58;8.00;;;3.88;;
81950;SDS011;71452;52.562;5.642;2023-11-21T13:18:30;6.07;;;3.13;;
81950;SDS011;71452;52.562;5.642;2023-11-21T13:21:00;7.20;;;2.85;;
81950;SDS011;71452;52.562;5.642;2023-11-21T13:23:35;5.97;;;3.03;;
81950;SDS011;71452;52.562;5.642;2023-11-21T13:26:06;8.52;;;4.10;;
81950;SDS011;71452;52.562;5.642;2023-11-21T13:28:38;7.60;;;3.97;;
81950;SDS011;71452;52.562;5.642;2023-11-21T13:31:11;8.57;;;3.53;;
81950;SDS011;71452;52.562;5.642;2023-11-21T13:33:52;9.55;;;4.85;;
81950;SDS011;71452;52.562;5.642;2023-11-21T13:36:30;11.02;;;4.90;;
81950;SDS011;71452;52.562;5.642;2023-11-21T13:39:00;7.03;;;3.15;;
81950;SDS011;71452;52.562;5.642;2023-11-21T13:41:33;9.90;;;4.97;;
81950;SDS011;71452;52.562;5.642;2023-11-21T13:44:06;6.90;;;3.45;;
81950;SDS011;71452;52.562;5.642;2023-11-21T13:46:41;8.30;;;4.10;;
81950;SDS011;71452;52.562;5.642;2023-11-21T13:49:11;5.90;;;3.22;;
81950;SDS011;71452;52.562;5.642;2023-11-21T13:51:41;5.72;;;2.60;;
81950;SDS011;71452;52.562;5.642;2023-11-21T13:54:11;6.78;;;3.00;;
81950;SDS011;71452;52.562;5.642;2023-11-21T13:56:41;6.18;;;2.75;;
81950;SDS011;71452;52.562;5.642;2023-11-21T13:59:14;5.22;;;2.58;;
81950;SDS011;71452;52.562;5.642;2023-11-21T14:01:47;7.22;;;3.05;;
81950;SDS011;71452;52.562;5.642;2023-11-21T14:04:25;7.53;;;4.18;;
81950;SDS011;71452;52.562;5.642;2023-11-21T14:07:15;8.85;;;4.18;;
81950;SDS011;71452;52.562;5.642;2023-11-21T14:09:57;7.47;;;3.83;;
81950;SDS011;71452;52.562;5.642;2023-11-21T14:12:26;7.95;;;3.45;;
81950;SDS011;71452;52.562;5.642;2023-11-21T14:15:02;6.93;;;3.40;;
81950;SDS011;71452;52.562;5.642;2023-11-21T14:17:34;5.28;;;2.40;;
81950;SDS011;71452;52.562;5.642;2023-11-21T14:20:06;7.60;;;3.20;;
81950;SDS011;71452;52.562;5.642;2023-11-21T14:22:41;5.78;;;3.28;;
81950;SDS011;71452;52.562;5.642;2023-11-21T14:25:10;5.88;;;3.35;;
81950;SDS011;71452;52.562;5.642;2023-11-21T14:27:40;7.10;;;3.10;;
81950;SDS011;71452;52.562;5.642;2023-11-21T14:30:11;5.65;;;3.35;;
81950;SDS011;71452;52.562;5.642;2023-11-21T14:32:44;7.28;;;3.58;;
81950;SDS011;71452;52.562;5.642;2023-11-21T14:35:14;6.60;;;3.35;;
81950;SDS011;71452;52.562;5.642;2023-11-21T14:37:43;7.50;;;3.95;;
81950;SDS011;71452;52.562;5.642;2023-11-21T14:40:12;5.93;;;3.72;;
81950;SDS011;71452;52.562;5.642;2023-11-21T14:42:47;7.85;;;4.03;;
81950;SDS011;71452;52.562;5.642;2023-11-21T14:45:21;7.43;;;3.67;;
81950;SDS011;71452;52.562;5.642;2023-11-21T14:50:31;6.22;;;3.72;;
81950;SDS011;71452;52.562;5.642;2023-11-21T14:53:28;8.43;;;3.53;;
81950;SDS011;71452;52.562;5.642;2023-11-21T14:56:09;5.97;;;3.78;;
81950;SDS011;71452;52.562;5.642;2023-11-21T14:58:36;8.10;;;4.05;;
81950;SDS011;71452;52.562;5.642;2023-11-21T15:01:07;7.75;;;3.13;;
81950;SDS011;71452;52.562;5.642;2023-11-21T15:03:36;5.20;;;3.08;;
81950;SDS011;71452;52.562;5.642;2023-11-21T15:06:15;6.95;;;3.70;;
81950;SDS011;71452;52.562;5.642;2023-11-21T15:08:48;3.78;;;2.03;;
81950;SDS011;71452;52.562;5.642;2023-11-21T15:13:56;6.47;;;3.38;;
81950;SDS011;71452;52.562;5.642;2023-11-21T15:16:28;7.00;;;3.90;;